sensor_id;sensor_type;location;lat;lon;timestamp;P1;durP1;ratioP1;P2;durP2;ratioP2
31004;SDS011;17676;52.254;4.490;2024-02-14T00:00:19;19.45;;;17.73;;
31004;SDS011;17676;52.254;4.490;2024-02-14T00:02:47;20.08;;;18.27;;
31004;SDS011;17676;52.254;4.490;2024-02-14T00:05:17;19.50;;;17.70;;
31004;SDS011;17676;52.254;4.490;2024-02-14T00:07:44;20.27;;;18.15;;
31004;SDS011;17676;52.254;4.490;2024-02-14T00:10:11;19.40;;;17.60;;
31004;SDS011;17676;52.254;4.490;2024-02-14T00:12:38;20.05;;;18.27;;
31004;SDS011;17676;52.254;4.490;2024-02-14T00:15:05;20.92;;;18.98;;
31004;SDS011;17676;52.254;4.490;2024-02-14T00:17:36;21.73;;;19.73;;
31004;SDS011;17676;52.254;4.490;2024-02-14T00:20:03;22.33;;;20.42;;
31004;SDS011;17676;52.254;4.490;2024-02-14T00:22:31;23.30;;;21.27;;
31004;SDS011;17676;52.254;4.490;2024-02-14T00:24:58;23.80;;;21.40;;
31004;SDS011;17676;52.254;4.490;2024-02-14T00:27:24;24.38;;;21.98;;
31004;SDS011;17676;52.254;4.490;2024-02-14T00:29:53;25.50;;;23.20;;
31004;SDS011;17676;52.254;4.490;2024-02-14T00:32:21;27.05;;;24.38;;
31004;SDS011;17676;52.254;4.490;2024-02-14T00:34:48;26.35;;;24.05;;
31004;SDS011;17676;52.254;4.490;2024-02-14T00:37:16;25.65;;;23.42;;
31004;SDS011;17676;52.254;4.490;2024-02-14T00:39:45;26.27;;;23.77;;
31004;SDS011;17676;52.254;4.490;2024-02-14T00:42:15;26.38;;;24.08;;
31004;SDS011;17676;52.254;4.490;2024-02-14T00:44:41;26.20;;;23.90;;
31004;SDS011;17676;52.254;4.490;2024-02-14T00:47:09;25.95;;;23.45;;
31004;SDS011;17676;52.254;4.490;2024-02-14T00:49:36;25.98;;;23.60;;
31004;SDS011;17676;52.254;4.490;2024-02-14T00:52:04;23.38;;;21.30;;
31004;SDS011;17676;52.254;4.490;2024-02-14T00:54:30;23.33;;;20.85;;
31004;SDS011;17676;52.254;4.490;2024-02-14T00:56:57;22.70;;;20.40;;
31004;SDS011;17676;52.254;4.490;2024-02-14T00:59:24;21.98;;;19.67;;
31004;SDS011;17676;52.254;4.490;2024-02-14T01:01:51;21.10;;;19.02;;
31004;SDS011;17676;52.254;4.490;2024-02-14T01:04:18;21.60;;;19.13;;
31004;SDS011;17676;52.254;4.490;2024-02-14T01:06:45;22.25;;;19.85;;
31004;SDS011;17676;52.254;4.490;2024-02-14T01:09:12;22.92;;;19.60;;
31004;SDS011;17676;52.254;4.490;2024-02-14T01:11:40;25.63;;;18.77;;
31004;SDS011;17676;52.254;4.490;2024-02-14T01:14:06;22.38;;;17.60;;
31004;SDS011;17676;52.254;4.490;2024-02-14T01:16:33;22.77;;;17.85;;
31004;SDS011;17676;52.254;4.490;2024-02-14T01:19:00;25.17;;;18.50;;
31004;SDS011;17676;52.254;4.490;2024-02-14T01:21:27;20.13;;;17.85;;
31004;SDS011;17676;52.254;4.490;2024-02-14T01:23:54;24.48;;;18.38;;
31004;SDS011;17676;52.254;4.490;2024-02-14T01:26:22;23.48;;;18.90;;
31004;SDS011;17676;52.254;4.490;2024-02-14T01:28:49;23.48;;;19.65;;
31004;SDS011;17676;52.254;4.490;2024-02-14T01:31:16;27.05;;;19.98;;
31004;SDS011;17676;52.254;4.490;2024-02-14T01:33:43;29.42;;;18.85;;
31004;SDS011;17676;52.254;4.490;2024-02-14T01:36:12;25.58;;;18.17;;
31004;SDS011;17676;52.254;4.490;2024-02-14T01:38:39;28.52;;;17.77;;
31004;SDS011;17676;52.254;4.490;2024-02-14T01:41:06;27.50;;;16.98;;
31004;SDS011;17676;52.254;4.490;2024-02-14T01:43:33;30.67;;;16.95;;
31004;SDS011;17676;52.254;4.490;2024-02-14T01:46:04;29.33;;;16.95;;
31004;SDS011;17676;52.254;4.490;2024-02-14T01:48:35;25.60;;;15.38;;
31004;SDS011;17676;52.254;4.490;2024-02-14T01:51:03;26.60;;;15.48;;
31004;SDS011;17676;52.254;4.490;2024-02-14T01:53:31;25.67;;;14.95;;
31004;SDS011;17676;52.254;4.490;2024-02-14T01:55:58;29.08;;;14.43;;
31004;SDS011;17676;52.254;4.490;2024-02-14T01:58:26;27.65;;;13.57;;
31004;SDS011;17676;52.254;4.490;2024-02-14T02:00:55;26.90;;;13.02;;
31004;SDS011;17676;52.254;4.490;2024-02-14T02:03:23;20.60;;;12.75;;
31004;SDS011;17676;52.254;4.490;2024-02-14T02:05:52;22.00;;;12.18;;
31004;SDS011;17676;52.254;4.490;2024-02-14T02:08:20;20.27;;;12.77;;
31004;SDS011;17676;52.254;4.490;2024-02-14T02:10:49;21.00;;;11.43;;
31004;SDS011;17676;52.254;4.490;2024-02-14T02:13:17;20.20;;;12.13;;
31004;SDS011;17676;52.254;4.490;2024-02-14T02:15:46;27.92;;;14.02;;
31004;SDS011;17676;52.254;4.490;2024-02-14T02:18:13;24.85;;;15.85;;
31004;SDS011;17676;52.254;4.490;2024-02-14T02:20:41;28.95;;;15.35;;
31004;SDS011;17676;52.254;4.490;2024-02-14T02:23:11;30.92;;;15.63;;
31004;SDS011;17676;52.254;4.490;2024-02-14T02:25:42;22.73;;;15.10;;
31004;SDS011;17676;52.254;4.490;2024-02-14T02:28:09;25.30;;;15.65;;
31004;SDS011;17676;52.254;4.490;2024-02-14T02:30:36;28.13;;;16.23;;
31004;SDS011;17676;52.254;4.490;2024-02-14T02:33:03;25.92;;;15.70;;
31004;SDS011;17676;52.254;4.490;2024-02-14T02:35:31;32.53;;;17.60;;
31004;SDS011;17676;52.254;4.490;2024-02-14T02:37:58;33.28;;;16.17;;
31004;SDS011;17676;52.254;4.490;2024-02-14T02:40:25;44.17;;;16.40;;
31004;SDS011;17676;52.254;4.490;2024-02-14T02:42:55;32.92;;;16.77;;
31004;SDS011;17676;52.254;4.490;2024-02-14T02:45:22;38.25;;;16.33;;
31004;SDS011;17676;52.254;4.490;2024-02-14T02:47:49;32.40;;;16.00;;
31004;SDS011;17676;52.254;4.490;2024-02-14T02:50:19;35.45;;;15.70;;
31004;SDS011;17676;52.254;4.490;2024-02-14T02:52:46;46.42;;;16.15;;
31004;SDS011;17676;52.254;4.490;2024-02-14T02:55:13;35.63;;;16.40;;
31004;SDS011;17676;52.254;4.490;2024-02-14T02:57:45;36.55;;;15.52;;
31004;SDS011;17676;52.254;4.490;2024-02-14T03:00:12;47.40;;;16.20;;
31004;SDS011;17676;52.254;4.490;2024-02-14T03:02:40;40.47;;;15.43;;
31004;SDS011;17676;52.254;4.490;2024-02-14T03:05:11;49.03;;;14.75;;
31004;SDS011;17676;52.254;4.490;2024-02-14T03:07:45;39.72;;;13.55;;
31004;SDS011;17676;52.254;4.490;2024-02-14T03:10:14;42.33;;;14.13;;
31004;SDS011;17676;52.254;4.490;2024-02-14T03:12:47;35.20;;;12.50;;
31004;SDS011;17676;52.254;4.490;2024-02-14T03:15:18;43.65;;;13.30;;
31004;SDS011;17676;52.254;4.490;2024-02-14T03:17:45;48.17;;;13.32;;
31004;SDS011;17676;52.254;4.490;2024-02-14T03:20:12;48.65;;;12.13;;
31004;SDS011;17676;52.254;4.490;2024-02-14T03:22:43;51.88;;;11.77;;
31004;SDS011;17676;52.254;4.490;2024-02-14T03:25:16;45.15;;;10.73;;
31004;SDS011;17676;52.254;4.490;2024-02-14T03:27:44;33.25;;;9.18;;
31004;SDS011;17676;52.254;4.490;2024-02-14T03:30:17;38.28;;;9.00;;
31004;SDS011;17676;52.254;4.490;2024-02-14T03:32:51;33.70;;;8.25;;
31004;SDS011;17676;52.254;4.490;2024-02-14T03:35:19;39.42;;;7.97;;
31004;SDS011;17676;52.254;4.490;2024-02-14T03:37:48;42.13;;;9.13;;
31004;SDS011;17676;52.254;4.490;2024-02-14T03:40:19;41.35;;;8.45;;
31004;SDS011;17676;52.254;4.490;2024-02-14T03:42:48;44.13;;;8.88;;
31004;SDS011;17676;52.254;4.490;2024-02-14T03:45:15;37.42;;;9.57;;
31004;SDS011;17676;52.254;4.490;2024-02-14T03:47:42;40.53;;;8.88;;
31004;SDS011;17676;52.254;4.490;2024-02-14T03:50:09;47.75;;;9.05;;
31004;SDS011;17676;52.254;4.490;2024-02-14T03:52:36;40.35;;;8.48;;
31004;SDS011;17676;52.254;4.490;2024-02-14T03:55:03;40.88;;;9.05;;
31004;SDS011;17676;52.254;4.490;2024-02-14T03:57:31;41.13;;;7.85;;
31004;SDS011;17676;52.254;4.490;2024-02-14T03:59:59;37.40;;;8.52;;
31004;SDS011;17676;52.254;4.490;2024-02-14T04:02:31;44.15;;;9.40;;
31004;SDS011;17676;52.254;4.490;2024-02-14T04:04:58;42.03;;;9.10;;
31004;SDS011;17676;52.254;4.490;2024-02-14T04:07:26;47.90;;;11.02;;
31004;SDS011;17676;52.254;4.490;2024-02-14T04:09:53;40.00;;;9.57;;
31004;SDS011;17676;52.254;4.490;2024-02-14T04:12:19;42.83;;;9.20;;
31004;SDS011;17676;52.254;4.490;2024-02-14T04:14:46;56.08;;;10.07;;
31004;SDS011;17676;52.254;4.490;2024-02-14T04:17:13;45.97;;;10.35;;
31004;SDS011;17676;52.254;4.490;2024-02-14T04:19:40;55.70;;;10.18;;
31004;SDS011;17676;52.254;4.490;2024-02-14T04:22:07;52.10;;;10.52;;
31004;SDS011;17676;52.254;4.490;2024-02-14T04:24:34;52.22;;;9.50;;
31004;SDS011;17676;52.254;4.490;2024-02-14T04:27:02;42.00;;;9.55;;
31004;SDS011;17676;52.254;4.490;2024-02-14T04:29:30;42.53;;;8.80;;
31004;SDS011;17676;52.254;4.490;2024-02-14T04:31:59;47.97;;;9.10;;
31004;SDS011;17676;52.254;4.490;2024-02-14T04:34:26;46.72;;;8.32;;
31004;SDS011;17676;52.254;4.490;2024-02-14T04:36:54;45.70;;;9.02;;
31004;SDS011;17676;52.254;4.490;2024-02-14T04:39:21;46.03;;;7.88;;
31004;SDS011;17676;52.254;4.490;2024-02-14T04:41:47;47.50;;;8.30;;
31004;SDS011;17676;52.254;4.490;2024-02-14T04:44:27;53.85;;;10.45;;
31004;SDS011;17676;52.254;4.490;2024-02-14T04:46:58;42.63;;;8.15;;
31004;SDS011;17676;52.254;4.490;2024-02-14T04:49:26;43.00;;;8.75;;
31004;SDS011;17676;52.254;4.490;2024-02-14T04:51:55;49.13;;;9.95;;
31004;SDS011;17676;52.254;4.490;2024-02-14T04:54:22;47.92;;;9.43;;
31004;SDS011;17676;52.254;4.490;2024-02-14T04:56:48;55.55;;;10.75;;
31004;SDS011;17676;52.254;4.490;2024-02-14T04:59:21;42.88;;;11.30;;
31004;SDS011;17676;52.254;4.490;2024-02-14T05:01:48;52.92;;;11.95;;
31004;SDS011;17676;52.254;4.490;2024-02-14T05:04:17;45.30;;;10.68;;
31004;SDS011;17676;52.254;4.490;2024-02-14T05:06:45;32.85;;;9.77;;
31004;SDS011;17676;52.254;4.490;2024-02-14T05:09:12;44.45;;;11.00;;
31004;SDS011;17676;52.254;4.490;2024-02-14T05:11:41;51.28;;;11.13;;
31004;SDS011;17676;52.254;4.490;2024-02-14T05:14:08;44.97;;;10.13;;
31004;SDS011;17676;52.254;4.490;2024-02-14T05:16:35;33.70;;;10.18;;
31004;SDS011;17676;52.254;4.490;2024-02-14T05:19:01;34.75;;;9.82;;
31004;SDS011;17676;52.254;4.490;2024-02-14T05:21:29;39.20;;;9.93;;
31004;SDS011;17676;52.254;4.490;2024-02-14T05:23:56;41.60;;;11.13;;
31004;SDS011;17676;52.254;4.490;2024-02-14T05:26:23;36.70;;;9.70;;
31004;SDS011;17676;52.254;4.490;2024-02-14T05:28:50;37.95;;;10.80;;
31004;SDS011;17676;52.254;4.490;2024-02-14T05:31:16;45.67;;;11.30;;
31004;SDS011;17676;52.254;4.490;2024-02-14T05:33:43;41.15;;;11.27;;
31004;SDS011;17676;52.254;4.490;2024-02-14T05:36:11;46.83;;;9.85;;
31004;SDS011;17676;52.254;4.490;2024-02-14T05:38:38;43.65;;;10.02;;
31004;SDS011;17676;52.254;4.490;2024-02-14T05:41:05;41.47;;;8.48;;
31004;SDS011;17676;52.254;4.490;2024-02-14T05:43:34;37.90;;;9.38;;
31004;SDS011;17676;52.254;4.490;2024-02-14T05:46:01;40.20;;;8.35;;
31004;SDS011;17676;52.254;4.490;2024-02-14T05:48:27;35.95;;;7.43;;
31004;SDS011;17676;52.254;4.490;2024-02-14T05:50:54;35.63;;;9.20;;
31004;SDS011;17676;52.254;4.490;2024-02-14T05:53:21;34.33;;;9.80;;
31004;SDS011;17676;52.254;4.490;2024-02-14T05:55:48;52.88;;;10.55;;
31004;SDS011;17676;52.254;4.490;2024-02-14T05:58:15;47.80;;;9.90;;
31004;SDS011;17676;52.254;4.490;2024-02-14T06:00:42;42.90;;;8.10;;
31004;SDS011;17676;52.254;4.490;2024-02-14T06:03:10;46.80;;;9.15;;
31004;SDS011;17676;52.254;4.490;2024-02-14T06:05:37;50.65;;;9.13;;
31004;SDS011;17676;52.254;4.490;2024-02-14T06:08:04;51.17;;;8.90;;
31004;SDS011;17676;52.254;4.490;2024-02-14T06:10:33;43.80;;;8.23;;
31004;SDS011;17676;52.254;4.490;2024-02-14T06:13:05;43.25;;;7.70;;
31004;SDS011;17676;52.254;4.490;2024-02-14T06:15:32;46.95;;;8.82;;
31004;SDS011;17676;52.254;4.490;2024-02-14T06:17:58;43.55;;;10.15;;
31004;SDS011;17676;52.254;4.490;2024-02-14T06:20:26;38.38;;;8.98;;
31004;SDS011;17676;52.254;4.490;2024-02-14T06:22:52;42.95;;;10.75;;
31004;SDS011;17676;52.254;4.490;2024-02-14T06:25:30;52.33;;;9.35;;
31004;SDS011;17676;52.254;4.490;2024-02-14T06:27:57;46.55;;;9.30;;
31004;SDS011;17676;52.254;4.490;2024-02-14T06:30:27;45.40;;;9.77;;
31004;SDS011;17676;52.254;4.490;2024-02-14T06:32:58;44.67;;;11.27;;
31004;SDS011;17676;52.254;4.490;2024-02-14T06:35:28;44.38;;;11.77;;
31004;SDS011;17676;52.254;4.490;2024-02-14T06:37:56;45.20;;;11.40;;
31004;SDS011;17676;52.254;4.490;2024-02-14T06:40:30;45.60;;;10.98;;
31004;SDS011;17676;52.254;4.490;2024-02-14T06:42:56;51.53;;;10.82;;
31004;SDS011;17676;52.254;4.490;2024-02-14T06:45:28;48.08;;;10.65;;
31004;SDS011;17676;52.254;4.490;2024-02-14T06:47:57;48.38;;;11.23;;
31004;SDS011;17676;52.254;4.490;2024-02-14T06:50:24;52.15;;;12.98;;
31004;SDS011;17676;52.254;4.490;2024-02-14T06:52:52;52.72;;;15.02;;
31004;SDS011;17676;52.254;4.490;2024-02-14T06:55:19;50.92;;;15.93;;
31004;SDS011;17676;52.254;4.490;2024-02-14T06:57:45;43.67;;;15.65;;
31004;SDS011;17676;52.254;4.490;2024-02-14T07:00:12;43.47;;;16.70;;
31004;SDS011;17676;52.254;4.490;2024-02-14T07:02:40;47.58;;;15.82;;
31004;SDS011;17676;52.254;4.490;2024-02-14T07:05:07;40.83;;;15.30;;
31004;SDS011;17676;52.254;4.490;2024-02-14T07:07:35;53.38;;;15.52;;
31004;SDS011;17676;52.254;4.490;2024-02-14T07:10:03;49.78;;;15.48;;
31004;SDS011;17676;52.254;4.490;2024-02-14T07:12:32;44.38;;;16.30;;
31004;SDS011;17676;52.254;4.490;2024-02-14T07:14:59;53.78;;;16.25;;
31004;SDS011;17676;52.254;4.490;2024-02-14T07:17:26;50.15;;;14.57;;
31004;SDS011;17676;52.254;4.490;2024-02-14T07:19:53;44.60;;;15.35;;
31004;SDS011;17676;52.254;4.490;2024-02-14T07:22:20;47.03;;;14.88;;
31004;SDS011;17676;52.254;4.490;2024-02-14T07:24:47;38.95;;;13.93;;
31004;SDS011;17676;52.254;4.490;2024-02-14T07:27:14;50.28;;;14.80;;
31004;SDS011;17676;52.254;4.490;2024-02-14T07:29:41;43.35;;;13.93;;
31004;SDS011;17676;52.254;4.490;2024-02-14T07:32:08;50.00;;;13.00;;
31004;SDS011;17676;52.254;4.490;2024-02-14T07:34:39;46.88;;;12.82;;
31004;SDS011;17676;52.254;4.490;2024-02-14T07:37:07;42.75;;;12.02;;
31004;SDS011;17676;52.254;4.490;2024-02-14T07:39:33;57.42;;;14.30;;
31004;SDS011;17676;52.254;4.490;2024-02-14T07:42:03;47.30;;;13.30;;
31004;SDS011;17676;52.254;4.490;2024-02-14T07:44:31;44.88;;;13.18;;
31004;SDS011;17676;52.254;4.490;2024-02-14T07:46:59;35.50;;;11.50;;
31004;SDS011;17676;52.254;4.490;2024-02-14T07:49:29;31.38;;;9.35;;
31004;SDS011;17676;52.254;4.490;2024-02-14T07:51:57;37.08;;;9.75;;
31004;SDS011;17676;52.254;4.490;2024-02-14T07:54:23;29.42;;;8.38;;
31004;SDS011;17676;52.254;4.490;2024-02-14T07:56:53;33.45;;;9.90;;
31004;SDS011;17676;52.254;4.490;2024-02-14T07:59:19;31.08;;;10.40;;
31004;SDS011;17676;52.254;4.490;2024-02-14T08:01:47;35.40;;;11.75;;
31004;SDS011;17676;52.254;4.490;2024-02-14T08:04:14;32.67;;;9.85;;
31004;SDS011;17676;52.254;4.490;2024-02-14T08:06:44;33.13;;;10.15;;
31004;SDS011;17676;52.254;4.490;2024-02-14T08:09:12;33.28;;;10.82;;
31004;SDS011;17676;52.254;4.490;2024-02-14T08:11:39;32.40;;;10.85;;
31004;SDS011;17676;52.254;4.490;2024-02-14T08:14:06;26.95;;;9.13;;
31004;SDS011;17676;52.254;4.490;2024-02-14T08:16:33;30.15;;;10.43;;
31004;SDS011;17676;52.254;4.490;2024-02-14T08:19:00;30.00;;;8.25;;
31004;SDS011;17676;52.254;4.490;2024-02-14T08:21:27;27.33;;;8.27;;
31004;SDS011;17676;52.254;4.490;2024-02-14T08:23:57;24.38;;;7.90;;
31004;SDS011;17676;52.254;4.490;2024-02-14T08:26:27;27.08;;;8.60;;
31004;SDS011;17676;52.254;4.490;2024-02-14T08:28:54;24.15;;;8.73;;
31004;SDS011;17676;52.254;4.490;2024-02-14T08:31:21;23.45;;;9.50;;
31004;SDS011;17676;52.254;4.490;2024-02-14T08:33:47;18.90;;;9.10;;
31004;SDS011;17676;52.254;4.490;2024-02-14T08:36:15;21.60;;;10.30;;
31004;SDS011;17676;52.254;4.490;2024-02-14T10:57:31;4.75;;;4.55;;
31004;SDS011;17676;52.254;4.490;2024-02-14T11:00:04;4.50;;;4.20;;
31004;SDS011;17676;52.254;4.490;2024-02-14T11:02:36;4.80;;;4.60;;
31004;SDS011;17676;52.254;4.490;2024-02-14T11:05:04;4.40;;;4.20;;
31004;SDS011;17676;52.254;4.490;2024-02-14T11:07:31;4.18;;;3.90;;
31004;SDS011;17676;52.254;4.490;2024-02-14T11:12:34;4.18;;;3.97;;
31004;SDS011;17676;52.254;4.490;2024-02-14T11:18:04;5.35;;;5.05;;
31004;SDS011;17676;52.254;4.490;2024-02-14T11:20:34;6.13;;;5.72;;
31004;SDS011;17676;52.254;4.490;2024-02-14T11:23:03;6.15;;;5.75;;
31004;SDS011;17676;52.254;4.490;2024-02-14T11:25:35;6.10;;;5.70;;
31004;SDS011;17676;52.254;4.490;2024-02-14T11:28:15;6.07;;;5.65;;
31004;SDS011;17676;52.254;4.490;2024-02-14T11:30:43;6.20;;;5.70;;
31004;SDS011;17676;52.254;4.490;2024-02-14T11:33:14;6.57;;;6.00;;
31004;SDS011;17676;52.254;4.490;2024-02-14T11:35:48;6.38;;;5.95;;
31004;SDS011;17676;52.254;4.490;2024-02-14T11:38:21;5.50;;;5.18;;
31004;SDS011;17676;52.254;4.490;2024-02-14T11:40:50;5.93;;;5.53;;
31004;SDS011;17676;52.254;4.490;2024-02-14T11:43:21;5.75;;;5.45;;
31004;SDS011;17676;52.254;4.490;2024-02-14T11:45:47;5.70;;;5.30;;
31004;SDS011;17676;52.254;4.490;2024-02-14T11:48:18;5.60;;;5.07;;
31004;SDS011;17676;52.254;4.490;2024-02-14T11:50:47;5.80;;;5.50;;
31004;SDS011;17676;52.254;4.490;2024-02-14T12:06:04;4.88;;;4.47;;
31004;SDS011;17676;52.254;4.490;2024-02-14T12:08:32;3.50;;;3.30;;
31004;SDS011;17676;52.254;4.490;2024-02-14T12:11:01;3.30;;;3.10;;
31004;SDS011;17676;52.254;4.490;2024-02-14T12:13:27;2.67;;;2.58;;
31004;SDS011;17676;52.254;4.490;2024-02-14T12:15:59;2.40;;;1.58;;
31004;SDS011;17676;52.254;4.490;2024-02-14T12:18:26;0.80;;;0.80;;
31004;SDS011;17676;52.254;4.490;2024-02-14T12:20:53;0.47;;;0.47;;
31004;SDS011;17676;52.254;4.490;2024-02-14T12:23:29;0.73;;;0.73;;
31004;SDS011;17676;52.254;4.490;2024-02-14T12:26:00;0.93;;;0.93;;
31004;SDS011;17676;52.254;4.490;2024-02-14T12:28:28;2.05;;;1.95;;
31004;SDS011;17676;52.254;4.490;2024-02-14T12:30:57;3.13;;;2.92;;
31004;SDS011;17676;52.254;4.490;2024-02-14T12:33:25;5.05;;;2.88;;
31004;SDS011;17676;52.254;4.490;2024-02-14T12:35:53;3.45;;;3.22;;
31004;SDS011;17676;52.254;4.490;2024-02-14T12:38:22;2.78;;;2.60;;
31004;SDS011;17676;52.254;4.490;2024-02-14T12:40:49;2.88;;;2.47;;
31004;SDS011;17676;52.254;4.490;2024-02-14T12:43:19;4.18;;;2.58;;
31004;SDS011;17676;52.254;4.490;2024-02-14T12:45:47;3.10;;;1.80;;
31004;SDS011;17676;52.254;4.490;2024-02-14T12:48:21;4.43;;;1.98;;
31004;SDS011;17676;52.254;4.490;2024-02-14T12:50:50;4.18;;;2.70;;
31004;SDS011;17676;52.254;4.490;2024-02-14T12:53:19;5.07;;;4.57;;
31004;SDS011;17676;52.254;4.490;2024-02-14T12:55:46;7.60;;;5.13;;
31004;SDS011;17676;52.254;4.490;2024-02-14T12:58:13;7.50;;;5.75;;
31004;SDS011;17676;52.254;4.490;2024-02-14T13:00:40;7.15;;;5.65;;
31004;SDS011;17676;52.254;4.490;2024-02-14T13:03:09;9.68;;;7.07;;
31004;SDS011;17676;52.254;4.490;2024-02-14T13:05:39;7.88;;;6.68;;
31004;SDS011;17676;52.254;4.490;2024-02-14T13:08:05;11.90;;;8.38;;
31004;SDS011;17676;52.254;4.490;2024-02-14T13:10:32;11.98;;;9.27;;
31004;SDS011;17676;52.254;4.490;2024-02-14T13:13:02;10.00;;;8.30;;
31004;SDS011;17676;52.254;4.490;2024-02-14T13:15:28;11.52;;;9.60;;
31004;SDS011;17676;52.254;4.490;2024-02-14T13:17:56;18.33;;;10.18;;
31004;SDS011;17676;52.254;4.490;2024-02-14T13:20:25;16.05;;;10.55;;
31004;SDS011;17676;52.254;4.490;2024-02-14T13:22:53;19.25;;;11.45;;
31004;SDS011;17676;52.254;4.490;2024-02-14T13:25:19;16.45;;;11.63;;
31004;SDS011;17676;52.254;4.490;2024-02-14T13:27:47;16.25;;;11.48;;
31004;SDS011;17676;52.254;4.490;2024-02-14T13:30:14;16.40;;;11.18;;
31004;SDS011;17676;52.254;4.490;2024-02-14T13:32:41;16.73;;;10.23;;
31004;SDS011;17676;52.254;4.490;2024-02-14T13:35:08;13.57;;;9.13;;
31004;SDS011;17676;52.254;4.490;2024-02-14T13:37:37;13.23;;;8.18;;
31004;SDS011;17676;52.254;4.490;2024-02-14T13:40:04;11.68;;;8.07;;
31004;SDS011;17676;52.254;4.490;2024-02-14T13:42:36;11.88;;;7.88;;
31004;SDS011;17676;52.254;4.490;2024-02-14T13:45:06;8.50;;;6.38;;
31004;SDS011;17676;52.254;4.490;2024-02-14T13:47:37;14.88;;;6.50;;
31004;SDS011;17676;52.254;4.490;2024-02-14T13:50:09;6.82;;;5.30;;
31004;SDS011;17676;52.254;4.490;2024-02-14T13:52:36;7.93;;;4.80;;
31004;SDS011;17676;52.254;4.490;2024-02-14T13:55:03;8.52;;;4.50;;
31004;SDS011;17676;52.254;4.490;2024-02-14T13:57:33;6.75;;;3.75;;
31004;SDS011;17676;52.254;4.490;2024-02-14T14:00:07;5.70;;;3.10;;
31004;SDS011;17676;52.254;4.490;2024-02-14T14:02:38;9.07;;;3.38;;
31004;SDS011;17676;52.254;4.490;2024-02-14T14:05:08;6.38;;;2.00;;
31004;SDS011;17676;52.254;4.490;2024-02-14T14:07:41;2.72;;;1.42;;
31004;SDS011;17676;52.254;4.490;2024-02-14T14:10:23;4.90;;;1.50;;
31004;SDS011;17676;52.254;4.490;2024-02-14T14:12:52;7.22;;;1.30;;
31004;SDS011;17676;52.254;4.490;2024-02-14T14:15:19;2.83;;;0.80;;
31004;SDS011;17676;52.254;4.490;2024-02-14T14:17:46;6.38;;;0.90;;
31004;SDS011;17676;52.254;4.490;2024-02-14T14:20:13;3.95;;;0.60;;
31004;SDS011;17676;52.254;4.490;2024-02-14T14:22:40;6.65;;;0.50;;
31004;SDS011;17676;52.254;4.490;2024-02-14T14:25:07;4.63;;;0.60;;
31004;SDS011;17676;52.254;4.490;2024-02-14T14:27:34;5.82;;;1.02;;
31004;SDS011;17676;52.254;4.490;2024-02-14T14:30:01;5.30;;;0.90;;
31004;SDS011;17676;52.254;4.490;2024-02-14T14:32:30;6.40;;;0.80;;
31004;SDS011;17676;52.254;4.490;2024-02-14T14:34:57;9.35;;;0.63;;
31004;SDS011;17676;52.254;4.490;2024-02-14T14:37:24;7.18;;;1.00;;
31004;SDS011;17676;52.254;4.490;2024-02-14T14:39:51;9.02;;;1.02;;
31004;SDS011;17676;52.254;4.490;2024-02-14T14:42:18;4.20;;;0.60;;
31004;SDS011;17676;52.254;4.490;2024-02-14T14:44:45;9.38;;;1.17;;
31004;SDS011;17676;52.254;4.490;2024-02-14T14:47:11;14.85;;;1.67;;
31004;SDS011;17676;52.254;4.490;2024-02-14T14:49:39;11.07;;;1.55;;
31004;SDS011;17676;52.254;4.490;2024-02-14T14:52:06;11.15;;;1.02;;
31004;SDS011;17676;52.254;4.490;2024-02-14T14:54:33;11.85;;;1.27;;
31004;SDS011;17676;52.254;4.490;2024-02-14T14:57:00;9.70;;;1.42;;
31004;SDS011;17676;52.254;4.490;2024-02-14T14:59:30;9.70;;;1.83;;
31004;SDS011;17676;52.254;4.490;2024-02-14T15:01:57;14.68;;;1.08;;
31004;SDS011;17676;52.254;4.490;2024-02-14T15:04:24;17.30;;;2.10;;
31004;SDS011;17676;52.254;4.490;2024-02-14T15:06:53;21.20;;;1.98;;
31004;SDS011;17676;52.254;4.490;2024-02-14T15:09:27;19.83;;;2.15;;
31004;SDS011;17676;52.254;4.490;2024-02-14T15:11:56;27.10;;;3.00;;
31004;SDS011;17676;52.254;4.490;2024-02-14T15:14:23;15.48;;;1.77;;
31004;SDS011;17676;52.254;4.490;2024-02-14T15:16:50;19.27;;;2.45;;
31004;SDS011;17676;52.254;4.490;2024-02-14T15:19:16;23.35;;;2.10;;
31004;SDS011;17676;52.254;4.490;2024-02-14T15:21:43;19.08;;;1.73;;
31004;SDS011;17676;52.254;4.490;2024-02-14T15:24:10;10.93;;;1.80;;
31004;SDS011;17676;52.254;4.490;2024-02-14T15:26:37;14.23;;;1.85;;
31004;SDS011;17676;52.254;4.490;2024-02-14T15:29:16;19.75;;;2.00;;
31004;SDS011;17676;52.254;4.490;2024-02-14T15:32:03;22.85;;;2.33;;
31004;SDS011;17676;52.254;4.490;2024-02-14T15:34:49;19.90;;;2.65;;
31004;SDS011;17676;52.254;4.490;2024-02-14T15:37:16;15.27;;;2.10;;
31004;SDS011;17676;52.254;4.490;2024-02-14T15:39:44;23.02;;;2.22;;
31004;SDS011;17676;52.254;4.490;2024-02-14T15:42:11;22.13;;;2.40;;
31004;SDS011;17676;52.254;4.490;2024-02-14T15:44:38;21.65;;;2.35;;
31004;SDS011;17676;52.254;4.490;2024-02-14T15:47:05;23.70;;;2.60;;
31004;SDS011;17676;52.254;4.490;2024-02-14T15:49:33;24.77;;;3.45;;
31004;SDS011;17676;52.254;4.490;2024-02-14T15:52:01;28.98;;;3.33;;
31004;SDS011;17676;52.254;4.490;2024-02-14T15:54:28;22.67;;;3.00;;
31004;SDS011;17676;52.254;4.490;2024-02-14T15:56:55;32.70;;;3.15;;
31004;SDS011;17676;52.254;4.490;2024-02-14T15:59:21;27.50;;;2.97;;
31004;SDS011;17676;52.254;4.490;2024-02-14T16:01:48;33.85;;;3.20;;
31004;SDS011;17676;52.254;4.490;2024-02-14T16:04:15;28.77;;;3.42;;
31004;SDS011;17676;52.254;4.490;2024-02-14T16:06:42;26.65;;;2.92;;
31004;SDS011;17676;52.254;4.490;2024-02-14T16:09:08;33.03;;;3.80;;
31004;SDS011;17676;52.254;4.490;2024-02-14T16:11:35;26.90;;;4.07;;
31004;SDS011;17676;52.254;4.490;2024-02-14T16:14:02;26.60;;;3.75;;
31004;SDS011;17676;52.254;4.490;2024-02-14T16:16:30;37.58;;;5.75;;
31004;SDS011;17676;52.254;4.490;2024-02-14T16:18:58;29.88;;;4.50;;
31004;SDS011;17676;52.254;4.490;2024-02-14T16:21:29;38.13;;;5.65;;
31004;SDS011;17676;52.254;4.490;2024-02-14T16:23:55;36.13;;;4.32;;
31004;SDS011;17676;52.254;4.490;2024-02-14T16:26:22;28.98;;;4.57;;
31004;SDS011;17676;52.254;4.490;2024-02-14T16:28:52;36.60;;;5.18;;
31004;SDS011;17676;52.254;4.490;2024-02-14T16:31:18;32.97;;;5.18;;
31004;SDS011;17676;52.254;4.490;2024-02-14T16:33:45;41.95;;;5.40;;
31004;SDS011;17676;52.254;4.490;2024-02-14T16:36:12;32.40;;;5.03;;
31004;SDS011;17676;52.254;4.490;2024-02-14T16:38:39;37.17;;;5.47;;
31004;SDS011;17676;52.254;4.490;2024-02-14T16:41:06;38.03;;;5.70;;
31004;SDS011;17676;52.254;4.490;2024-02-14T16:43:33;40.00;;;4.95;;
31004;SDS011;17676;52.254;4.490;2024-02-14T16:45:59;42.70;;;4.85;;
31004;SDS011;17676;52.254;4.490;2024-02-14T16:48:26;29.33;;;4.65;;
31004;SDS011;17676;52.254;4.490;2024-02-14T16:50:53;32.38;;;4.05;;
31004;SDS011;17676;52.254;4.490;2024-02-14T16:53:20;34.90;;;4.70;;
31004;SDS011;17676;52.254;4.490;2024-02-14T16:55:46;41.25;;;5.07;;
31004;SDS011;17676;52.254;4.490;2024-02-14T16:58:13;40.53;;;4.82;;
31004;SDS011;17676;52.254;4.490;2024-02-14T17:00:40;39.40;;;4.43;;
31004;SDS011;17676;52.254;4.490;2024-02-14T17:03:08;27.83;;;4.43;;
31004;SDS011;17676;52.254;4.490;2024-02-14T17:05:42;30.85;;;3.70;;
31004;SDS011;17676;52.254;4.490;2024-02-14T17:08:09;40.35;;;4.72;;
31004;SDS011;17676;52.254;4.490;2024-02-14T17:10:36;39.83;;;4.65;;
31004;SDS011;17676;52.254;4.490;2024-02-14T17:13:03;27.48;;;4.75;;